createdAt,value
2023-05-14T00:01:08.175Z,11.32
2023-05-14T00:03:11.128Z,17.25
2023-05-14T00:05:13.803Z,13.65
2023-05-14T00:07:16.700Z,16.90
2023-05-14T00:09:20.611Z,12.90
2023-05-14T00:11:23.200Z,12.55
2023-05-14T00:13:26.271Z,15.07
2023-05-14T00:15:28.854Z,12.73
2023-05-14T00:17:31.493Z,17.20
2023-05-14T00:19:34.070Z,13.43
2023-05-14T00:21:36.658Z,11.13
2023-05-14T00:23:39.316Z,13.85
2023-05-14T00:25:43.446Z,12.25
2023-05-14T00:27:46.042Z,13.95
2023-05-14T00:29:48.597Z,13.15
2023-05-14T00:31:51.337Z,12.02
2023-05-14T00:33:54.050Z,14.88
2023-05-14T00:35:56.695Z,11.27
2023-05-14T00:37:59.273Z,13.50
2023-05-14T00:40:01.838Z,15.95
2023-05-14T00:42:06.119Z,15.35
2023-05-14T00:44:08.726Z,13.57
2023-05-14T00:46:12.399Z,14.43
2023-05-14T00:48:15.138Z,12.65
2023-05-14T00:50:18.830Z,13.55
2023-05-14T00:52:22.070Z,13.50
2023-05-14T00:54:25.026Z,14.00
2023-05-14T00:56:29.107Z,13.70
2023-05-14T00:58:33.412Z,12.65
2023-05-14T01:00:36.285Z,12.63
2023-05-14T01:02:39.055Z,13.18
2023-05-14T01:04:41.874Z,11.30
2023-05-14T01:06:55.061Z,13.45
2023-05-14T01:09:04.517Z,13.63
2023-05-14T01:11:12.513Z,13.55
2023-05-14T01:13:24.212Z,14.32
2023-05-14T01:15:31.743Z,14.43
2023-05-14T01:17:39.312Z,12.63
2023-05-14T01:19:43.862Z,12.10
2023-05-14T01:21:47.809Z,14.35
2023-05-14T01:23:50.377Z,13.13
2023-05-14T01:25:52.967Z,13.63
2023-05-14T01:28:02.227Z,25.40
2023-05-14T01:30:13.411Z,17.17
2023-05-14T01:32:18.446Z,13.98
2023-05-14T01:34:23.847Z,16.60
2023-05-14T01:36:27.417Z,13.82
2023-05-14T01:38:33.916Z,13.95
2023-05-14T01:40:37.912Z,13.65
2023-05-14T01:42:41.385Z,11.75
2023-05-14T01:44:44.276Z,11.77
2023-05-14T01:46:46.849Z,12.45
2023-05-14T01:48:49.419Z,13.13
2023-05-14T01:50:51.991Z,13.15
2023-05-14T01:52:56.518Z,13.63
2023-05-14T01:55:00.809Z,13.52
2023-05-14T01:57:03.381Z,13.52
2023-05-14T01:59:06.205Z,14.90
2023-05-14T02:01:08.766Z,14.30
2023-05-14T02:03:11.420Z,13.57
2023-05-14T02:05:14.498Z,13.85
2023-05-14T02:07:17.176Z,14.98
2023-05-14T02:09:20.884Z,16.70
2023-05-14T02:11:24.789Z,14.23
2023-05-14T02:13:27.410Z,11.45
2023-05-14T02:15:29.967Z,12.25
2023-05-14T02:17:32.627Z,19.83
2023-05-14T02:19:35.241Z,12.73
2023-05-14T02:21:37.812Z,10.98
2023-05-14T02:23:42.021Z,12.80
2023-05-14T02:25:45.119Z,12.10
2023-05-14T02:27:49.494Z,14.70
2023-05-14T02:29:52.075Z,10.93
2023-05-14T02:31:54.830Z,15.50
2023-05-14T02:33:57.577Z,14.98
2023-05-14T02:36:00.162Z,13.43
2023-05-14T02:38:02.764Z,18.90
2023-05-14T02:40:06.524Z,12.75
2023-05-14T02:42:09.130Z,15.38
2023-05-14T02:44:13.079Z,12.73
2023-05-14T02:46:15.667Z,12.32
2023-05-14T02:48:18.250Z,14.80
2023-05-14T02:50:20.920Z,13.50
2023-05-14T02:52:23.729Z,13.18
2023-05-14T02:54:26.280Z,12.68
2023-05-14T02:56:28.874Z,12.07
2023-05-14T02:58:31.441Z,12.65
2023-05-14T03:00:35.437Z,13.25
2023-05-14T03:02:38.735Z,13.63
2023-05-14T03:04:41.688Z,13.85
2023-05-14T03:06:44.220Z,11.00
2023-05-14T03:08:46.814Z,17.95
2023-05-14T03:10:49.383Z,18.33
2023-05-14T03:12:51.966Z,14.68
2023-05-14T03:14:54.513Z,13.70
2023-05-14T03:16:58.500Z,13.38
2023-05-14T03:19:01.176Z,16.65
2023-05-14T03:21:04.364Z,13.45
2023-05-14T03:23:07.114Z,15.52
2023-05-14T03:25:10.247Z,16.00
2023-05-14T03:27:12.800Z,13.82
2023-05-14T03:29:18.003Z,16.33
2023-05-14T03:31:20.789Z,17.13
2023-05-14T03:33:24.790Z,15.13
2023-05-14T03:35:27.463Z,14.70
2023-05-14T03:37:30.071Z,16.20
2023-05-14T03:39:32.698Z,14.13
2023-05-14T03:41:35.912Z,17.73
2023-05-14T03:43:38.527Z,17.48
2023-05-14T03:45:41.249Z,16.00
2023-05-14T03:47:43.838Z,17.33
2023-05-14T03:49:47.819Z,16.50
2023-05-14T03:51:50.574Z,12.63
2023-05-14T03:53:53.101Z,14.32
2023-05-14T03:55:55.666Z,13.93
2023-05-14T03:57:58.211Z,14.88
2023-05-14T04:00:00.782Z,14.25
2023-05-14T04:02:03.405Z,14.93
2023-05-14T04:04:06.266Z,12.15
2023-05-14T04:06:10.229Z,14.88
2023-05-14T04:08:12.776Z,19.35
2023-05-14T04:10:15.387Z,13.07
2023-05-14T04:12:17.953Z,15.43
2023-05-14T04:14:23.002Z,15.85
2023-05-14T04:16:25.753Z,13.95
2023-05-14T04:18:28.426Z,13.38
2023-05-14T04:20:31.050Z,12.45
2023-05-14T04:22:34.971Z,12.90
2023-05-14T04:24:37.602Z,15.23
2023-05-14T04:26:40.190Z,12.73
2023-05-14T04:28:42.772Z,14.73
2023-05-14T04:30:45.655Z,20.92
2023-05-14T04:32:48.267Z,12.25
2023-05-14T04:34:50.910Z,14.32
2023-05-14T04:36:53.482Z,14.82
2023-05-14T04:39:00.121Z,13.45
2023-05-14T04:41:02.974Z,13.65
2023-05-14T04:43:05.539Z,13.18
2023-05-14T04:45:09.188Z,16.70
2023-05-14T04:47:12.482Z,14.75
2023-05-14T04:49:15.048Z,15.07
2023-05-14T04:51:17.619Z,17.27
2023-05-14T04:53:20.263Z,15.50
2023-05-14T04:55:24.284Z,16.40
2023-05-14T04:57:26.852Z,20.55
2023-05-14T04:59:29.428Z,17.35
2023-05-14T05:01:32.070Z,18.15
2023-05-14T05:03:34.768Z,18.52
2023-05-14T05:05:37.338Z,15.43
2023-05-14T05:07:39.888Z,16.52
2023-05-14T05:09:44.002Z,19.13
2023-05-14T05:11:47.926Z,17.77
2023-05-14T05:13:50.479Z,21.05
2023-05-14T05:15:53.067Z,22.45
2023-05-14T05:17:55.673Z,16.30
2023-05-14T05:19:58.281Z,17.02
2023-05-14T05:22:00.862Z,17.67
2023-05-14T05:24:03.503Z,16.38
2023-05-14T05:26:06.313Z,18.38
2023-05-14T05:28:10.244Z,16.63
2023-05-14T05:30:13.514Z,20.67
2023-05-14T05:32:16.139Z,17.13
2023-05-14T05:34:19.441Z,16.55
2023-05-14T05:36:22.004Z,16.25
2023-05-14T05:38:24.572Z,19.88
2023-05-14T05:40:27.362Z,14.70
2023-05-14T05:42:29.920Z,17.42
2023-05-14T05:44:33.896Z,16.83
2023-05-14T05:46:36.686Z,19.77
2023-05-14T05:48:39.236Z,15.77
2023-05-14T05:50:42.814Z,17.23
2023-05-14T05:52:45.439Z,17.92
2023-05-14T05:54:47.978Z,19.80
2023-05-14T05:56:50.708Z,16.08
2023-05-14T05:58:53.276Z,17.00
2023-05-14T06:00:57.690Z,16.95
2023-05-14T06:03:00.360Z,17.92
2023-05-14T06:05:03.222Z,16.55
2023-05-14T06:07:06.060Z,15.02
2023-05-14T06:09:08.987Z,18.25
2023-05-14T06:11:11.588Z,19.70
2023-05-14T06:13:14.229Z,20.70
2023-05-14T06:15:16.925Z,16.05
2023-05-14T06:17:20.827Z,18.52
2023-05-14T06:19:24.013Z,16.65
2023-05-14T06:21:26.630Z,14.55
2023-05-14T06:23:29.208Z,13.75
2023-05-14T06:25:33.264Z,15.80
2023-05-14T06:27:35.839Z,16.48
2023-05-14T06:29:38.473Z,17.58
2023-05-14T06:31:41.139Z,14.73
2023-05-14T06:33:45.271Z,17.48
2023-05-14T06:35:47.926Z,14.95
2023-05-14T06:37:50.510Z,15.10
2023-05-14T06:39:54.375Z,17.05
2023-05-14T06:41:57.810Z,17.00
2023-05-14T06:44:00.359Z,14.80
2023-05-14T06:46:02.934Z,14.30
2023-05-14T06:48:06.169Z,16.98
2023-05-14T06:50:11.255Z,16.90
2023-05-14T06:52:13.860Z,17.45
2023-05-14T06:54:20.439Z,16.98
2023-05-14T06:56:23.503Z,17.77
2023-05-14T06:58:26.076Z,16.02
2023-05-14T07:00:29.503Z,16.85
2023-05-14T07:02:32.219Z,17.10
2023-05-14T07:04:35.030Z,15.88
2023-05-14T07:06:39.055Z,18.25
2023-05-14T07:08:41.880Z,15.68
2023-05-14T07:10:44.460Z,22.45
2023-05-14T07:12:47.015Z,17.70
2023-05-14T07:14:49.995Z,17.77
2023-05-14T07:16:52.787Z,16.52
2023-05-14T07:18:55.545Z,15.25
2023-05-14T07:20:58.175Z,19.35
2023-05-14T07:23:02.082Z,20.17
2023-05-14T07:25:04.857Z,16.15
2023-05-14T07:27:08.498Z,18.25
2023-05-14T07:29:11.050Z,18.27
2023-05-14T07:31:13.694Z,19.55
2023-05-14T07:33:16.275Z,19.10
2023-05-14T07:35:18.853Z,17.23
2023-05-14T07:37:24.172Z,19.52
2023-05-14T07:39:28.245Z,20.45
2023-05-14T07:41:30.786Z,17.70
2023-05-14T07:43:33.435Z,19.33
2023-05-14T07:45:37.593Z,18.85
2023-05-14T07:47:40.716Z,15.45
2023-05-14T07:49:43.422Z,19.15
2023-05-14T07:51:46.142Z,17.65
2023-05-14T07:53:48.721Z,22.33
2023-05-14T07:55:52.787Z,15.32
2023-05-14T07:57:55.548Z,16.25
2023-05-14T07:59:58.137Z,16.88
2023-05-14T08:02:01.002Z,16.33
2023-05-14T08:04:03.653Z,17.95
2023-05-14T08:06:06.572Z,18.13
2023-05-14T08:08:12.467Z,19.33
2023-05-14T08:10:15.182Z,18.00
2023-05-14T08:12:19.114Z,24.55
2023-05-14T08:14:22.057Z,19.63
2023-05-14T08:16:26.146Z,20.83
2023-05-14T08:18:28.811Z,18.88
2023-05-14T08:20:31.629Z,19.77
2023-05-14T08:22:34.272Z,19.15
2023-05-14T08:24:36.874Z,19.02
2023-05-14T08:26:39.479Z,18.88
2023-05-14T08:28:43.360Z,20.15
2023-05-14T08:30:45.950Z,22.65
2023-05-14T08:32:48.592Z,18.15
2023-05-14T08:34:51.640Z,22.98
2023-05-14T08:36:54.557Z,20.25
2023-05-14T08:38:57.146Z,23.30
2023-05-14T08:41:00.511Z,21.33
2023-05-14T08:43:03.632Z,21.23
2023-05-14T08:45:12.951Z,19.33
2023-05-14T08:47:19.012Z,22.38
2023-05-14T08:49:28.851Z,19.77
2023-05-14T08:51:31.466Z,18.70
2023-05-14T08:53:34.037Z,18.45
2023-05-14T08:55:38.614Z,23.38
2023-05-14T08:57:41.235Z,20.52
2023-05-14T08:59:43.807Z,23.00
2023-05-14T09:01:49.262Z,23.27
2023-05-14T09:03:53.799Z,22.60
2023-05-14T09:05:59.393Z,20.88
2023-05-14T09:08:02.767Z,18.85
2023-05-14T09:10:06.093Z,20.15
2023-05-14T09:12:09.904Z,22.05
2023-05-14T09:14:12.920Z,21.35
2023-05-14T09:16:16.556Z,21.52
2023-05-14T09:18:20.969Z,21.05
2023-05-14T09:20:28.539Z,20.52
2023-05-14T09:22:32.847Z,23.67
2023-05-14T09:24:35.615Z,19.67
2023-05-14T09:26:38.161Z,19.88
2023-05-14T09:28:41.447Z,20.00
2023-05-14T09:30:47.580Z,20.42
2023-05-14T09:32:50.628Z,20.83
2023-05-14T09:34:54.613Z,21.15
2023-05-14T09:36:58.602Z,23.92
2023-05-14T09:39:04.007Z,21.33
2023-05-14T09:41:06.565Z,18.95
2023-05-14T09:43:10.051Z,19.48
2023-05-14T09:45:12.849Z,21.95
2023-05-14T09:47:16.325Z,19.35
2023-05-14T09:49:19.239Z,18.83
2023-05-14T09:51:23.164Z,19.38
2023-05-14T09:53:26.070Z,18.90
2023-05-14T09:55:29.055Z,19.52
2023-05-14T09:57:31.668Z,17.50
2023-05-14T09:59:34.283Z,19.23
2023-05-14T10:01:38.196Z,19.80
2023-05-14T10:03:41.599Z,17.33
2023-05-14T10:05:45.020Z,18.45
2023-05-14T10:07:50.512Z,20.35
2023-05-14T10:10:00.640Z,20.33
2023-05-14T10:12:03.372Z,20.27
2023-05-14T10:14:09.506Z,18.80
2023-05-14T10:16:17.373Z,18.38
2023-05-14T10:18:23.918Z,16.85
2023-05-14T10:20:28.652Z,17.13
2023-05-14T10:22:34.594Z,16.95
2023-05-14T10:24:39.236Z,16.85
2023-05-14T10:26:42.352Z,16.45
2023-05-14T10:28:45.263Z,15.30
2023-05-14T10:30:47.899Z,13.60
2023-05-14T10:32:50.619Z,13.82
2023-05-14T10:34:54.650Z,15.38
2023-05-14T10:37:00.402Z,14.88
2023-05-14T10:39:05.064Z,18.75
2023-05-14T10:41:12.717Z,16.05
2023-05-14T10:43:17.000Z,13.93
2023-05-14T10:45:19.985Z,16.15
2023-05-14T10:47:23.300Z,17.27
2023-05-14T10:49:39.842Z,18.10
2023-05-14T10:51:49.366Z,16.27
2023-05-14T10:53:52.156Z,17.00
2023-05-14T10:55:56.382Z,20.48
2023-05-14T10:58:01.373Z,14.05
2023-05-14T11:00:08.991Z,23.90
2023-05-14T11:02:23.432Z,14.60
2023-05-14T11:04:26.247Z,14.13
2023-05-14T11:06:29.221Z,11.70
2023-05-14T11:08:32.281Z,36.20
2023-05-14T11:10:35.986Z,21.13
2023-05-14T11:12:40.664Z,12.93
2023-05-14T11:14:44.675Z,37.38
2023-05-14T11:16:48.382Z,19.08
2023-05-14T11:18:55.767Z,13.95
2023-05-14T11:21:02.083Z,16.60
2023-05-14T11:23:04.636Z,11.63
2023-05-14T11:25:10.362Z,9.40
2023-05-14T11:27:13.159Z,9.63
2023-05-14T11:29:15.849Z,9.57
2023-05-14T11:31:20.007Z,9.48
2023-05-14T11:33:22.654Z,12.48
2023-05-14T11:35:25.545Z,12.38
2023-05-14T11:37:28.112Z,10.07
2023-05-14T11:39:31.873Z,9.57
2023-05-14T11:41:34.502Z,10.15
2023-05-14T11:43:37.439Z,12.50
2023-05-14T11:45:40.058Z,9.48
2023-05-14T11:47:44.004Z,11.60
2023-05-14T11:49:46.997Z,9.75
2023-05-14T11:51:49.535Z,11.75
2023-05-14T11:53:52.122Z,12.48
2023-05-14T11:55:57.641Z,13.68
2023-05-14T11:58:00.308Z,12.95
2023-05-14T12:00:04.622Z,15.68
2023-05-14T12:02:11.654Z,7.25
2023-05-14T12:04:16.236Z,12.55
2023-05-14T12:06:19.419Z,9.23
2023-05-14T12:08:22.375Z,8.20
2023-05-14T12:10:25.363Z,8.13
2023-05-14T12:12:28.293Z,10.63
2023-05-14T12:14:30.862Z,9.35
2023-05-14T12:16:35.440Z,9.00
2023-05-14T12:18:39.576Z,9.77
2023-05-14T12:20:48.800Z,8.63
2023-05-14T12:22:51.428Z,9.02
2023-05-14T12:24:55.309Z,11.23
2023-05-14T12:26:58.006Z,10.60
2023-05-14T12:29:01.984Z,9.43
2023-05-14T12:31:04.681Z,9.13
2023-05-14T12:33:07.303Z,9.00
2023-05-14T12:35:10.266Z,9.20
2023-05-14T12:37:14.203Z,9.95
2023-05-14T12:39:16.814Z,8.55
2023-05-14T12:41:19.439Z,10.10
2023-05-14T12:43:22.062Z,8.43
2023-05-14T12:45:24.804Z,9.75
2023-05-14T12:47:27.540Z,8.98
2023-05-14T12:49:30.115Z,8.93
2023-05-14T12:51:32.685Z,9.60
2023-05-14T12:53:36.672Z,8.38
2023-05-14T12:55:39.253Z,10.30
2023-05-14T12:57:42.561Z,11.43
2023-05-14T12:59:45.115Z,9.38
2023-05-14T13:01:47.702Z,8.95
2023-05-14T13:03:50.496Z,8.10
2023-05-14T13:05:53.685Z,10.35
2023-05-14T13:08:00.050Z,5.95
2023-05-14T13:10:05.519Z,10.52
2023-05-14T13:12:08.755Z,7.20
2023-05-14T13:14:11.336Z,5.82
2023-05-14T13:16:16.922Z,11.07
2023-05-14T13:18:19.640Z,7.78
2023-05-14T13:20:23.586Z,5.68
2023-05-14T13:22:26.222Z,8.10
2023-05-14T13:24:28.812Z,10.00
2023-05-14T13:26:32.760Z,9.73
2023-05-14T13:28:35.349Z,7.22
2023-05-14T13:30:37.976Z,7.35
2023-05-14T13:32:42.267Z,7.65
2023-05-14T13:34:44.972Z,8.45
2023-05-14T13:36:50.684Z,10.48
2023-05-14T13:38:53.231Z,7.35
2023-05-14T13:41:02.109Z,8.63
2023-05-14T13:43:06.032Z,6.75
2023-05-14T13:45:09.404Z,8.25
2023-05-14T13:47:11.962Z,8.20
2023-05-14T13:49:14.547Z,6.85
2023-05-14T13:51:17.277Z,9.02
2023-05-14T13:53:20.462Z,6.30
2023-05-14T13:55:23.156Z,6.82
2023-05-14T13:57:26.014Z,6.38
2023-05-14T13:59:29.925Z,5.65
2023-05-14T14:01:32.778Z,6.47
2023-05-14T14:03:35.402Z,8.77
2023-05-14T14:05:38.133Z,8.77
2023-05-14T14:07:40.782Z,9.38
2023-05-14T14:09:43.338Z,5.90
2023-05-14T14:11:45.928Z,7.78
2023-05-14T14:13:48.542Z,9.25
2023-05-14T14:15:52.790Z,7.68
2023-05-14T14:17:55.689Z,9.38
2023-05-14T14:19:58.270Z,14.73
2023-05-14T14:22:00.853Z,10.45
2023-05-14T14:24:03.507Z,7.03
2023-05-14T14:26:06.092Z,7.88
2023-05-14T14:28:08.647Z,5.93
2023-05-14T14:30:15.613Z,6.15
2023-05-14T14:32:20.193Z,6.43
2023-05-14T14:34:22.750Z,6.47
2023-05-14T14:36:25.298Z,6.20
2023-05-14T14:38:27.845Z,6.78
2023-05-14T14:40:30.576Z,6.15
2023-05-14T14:42:33.188Z,5.80
2023-05-14T14:44:35.758Z,6.40
2023-05-14T14:46:38.294Z,7.55
2023-05-14T14:48:42.188Z,5.90
2023-05-14T14:50:44.770Z,4.82
2023-05-14T14:52:47.998Z,5.75
2023-05-14T14:54:50.718Z,7.72
2023-05-14T14:56:53.390Z,7.05
2023-05-14T14:58:55.966Z,6.75
2023-05-14T15:00:59.164Z,7.43
2023-05-14T15:03:01.868Z,8.20
2023-05-14T15:05:06.893Z,9.07
2023-05-14T15:07:09.461Z,6.68
2023-05-14T15:09:12.036Z,7.00
2023-05-14T15:11:15.196Z,8.00
2023-05-14T15:13:17.741Z,5.93
2023-05-14T15:15:20.905Z,7.07
2023-05-14T15:17:23.947Z,6.60
2023-05-14T15:19:26.501Z,5.85
2023-05-14T15:21:30.458Z,5.40
2023-05-14T15:23:33.468Z,5.75
2023-05-14T15:25:36.772Z,5.05
2023-05-14T15:27:39.308Z,5.40
2023-05-14T15:29:42.355Z,5.57
2023-05-14T15:31:45.949Z,5.45
2023-05-14T15:33:48.551Z,9.32
2023-05-14T15:35:51.271Z,6.15
2023-05-14T15:37:56.953Z,6.88
2023-05-14T15:39:59.563Z,5.97
2023-05-14T15:42:02.170Z,6.90
2023-05-14T15:44:04.926Z,6.20
2023-05-14T15:46:08.455Z,6.63
2023-05-14T15:48:11.483Z,6.88
2023-05-14T15:50:14.063Z,5.50
2023-05-14T15:52:16.677Z,5.25
2023-05-14T15:54:20.647Z,4.70
2023-05-14T15:56:23.383Z,10.70
2023-05-14T15:58:26.087Z,6.57
2023-05-14T16:00:28.672Z,8.20
2023-05-14T16:02:33.221Z,7.10
2023-05-14T16:04:35.932Z,10.38
2023-05-14T16:06:41.844Z,6.43
2023-05-14T16:08:44.407Z,6.68
2023-05-14T16:10:48.296Z,6.75
2023-05-14T16:12:50.868Z,6.63
2023-05-14T16:14:53.914Z,5.95
2023-05-14T16:16:56.491Z,7.85
2023-05-14T16:18:59.103Z,7.90
2023-05-14T16:21:01.984Z,6.63
2023-05-14T16:23:04.554Z,7.32
2023-05-14T16:25:07.759Z,9.10
2023-05-14T16:27:11.936Z,6.05
2023-05-14T16:29:14.613Z,7.97
2023-05-14T16:31:17.228Z,11.60
2023-05-14T16:33:19.808Z,8.77
2023-05-14T16:35:22.400Z,8.52
2023-05-14T16:37:25.014Z,13.27
2023-05-14T16:39:27.575Z,9.23
2023-05-14T16:41:30.157Z,9.68
2023-05-14T16:43:34.073Z,9.20
2023-05-14T16:45:37.395Z,8.05
2023-05-14T16:47:40.031Z,8.52
2023-05-14T16:49:43.241Z,11.75
2023-05-14T16:51:46.007Z,10.07
2023-05-14T16:53:48.561Z,9.88
2023-05-14T16:55:51.130Z,11.98
2023-05-14T16:57:53.709Z,8.45
2023-05-14T16:59:57.704Z,15.60
2023-05-14T17:02:00.619Z,9.55
2023-05-14T17:04:03.352Z,9.65
2023-05-14T17:06:06.476Z,10.48
2023-05-14T17:08:09.050Z,12.88
2023-05-14T17:10:11.927Z,9.35
2023-05-14T17:12:14.492Z,11.23
2023-05-14T17:14:17.047Z,9.77
2023-05-14T17:16:21.918Z,8.07
2023-05-14T17:18:24.623Z,10.45
2023-05-14T17:20:28.581Z,12.60
2023-05-14T17:22:31.761Z,8.75
2023-05-14T17:24:35.086Z,10.02
2023-05-14T17:26:38.592Z,10.77
2023-05-14T17:28:41.145Z,8.38
2023-05-14T17:30:43.764Z,16.25
2023-05-14T17:32:50.308Z,10.55
2023-05-14T17:34:53.520Z,10.80
2023-05-14T17:36:56.068Z,10.73
2023-05-14T17:38:58.708Z,12.55
2023-05-14T17:41:02.060Z,10.10
2023-05-14T17:43:04.737Z,13.38
2023-05-14T17:45:08.838Z,8.80
2023-05-14T17:47:11.478Z,11.73
2023-05-14T17:49:15.413Z,9.90
2023-05-14T17:51:17.957Z,10.18
2023-05-14T17:53:20.614Z,8.80
2023-05-14T17:55:23.410Z,11.60
2023-05-14T17:57:26.607Z,9.65
2023-05-14T17:59:29.224Z,9.93
2023-05-14T18:01:31.913Z,17.65
2023-05-14T18:03:34.683Z,11.60
2023-05-14T18:05:39.357Z,9.38
2023-05-14T18:07:41.936Z,11.73
2023-05-14T18:12:19.331Z,9.77
2023-05-14T18:14:21.918Z,11.30
2023-05-14T18:16:24.639Z,8.20
2023-05-14T18:18:27.437Z,9.75
2023-05-14T18:20:30.059Z,8.20
2023-05-14T18:22:34.144Z,8.13
2023-05-14T18:24:36.687Z,8.75
2023-05-14T18:26:39.251Z,11.45
2023-05-14T18:28:42.332Z,9.90
2023-05-14T18:30:45.299Z,11.75
2023-05-14T18:32:47.917Z,9.23
2023-05-14T18:34:51.324Z,12.30
2023-05-14T18:36:53.972Z,10.43
2023-05-14T18:38:58.342Z,10.75
2023-05-14T18:41:00.989Z,9.82
2023-05-14T18:43:04.325Z,12.45
2023-05-14T18:45:07.563Z,10.68
2023-05-14T18:47:11.326Z,10.18
2023-05-14T18:49:13.861Z,14.52
2023-05-14T18:51:17.336Z,10.82
2023-05-14T18:53:19.915Z,8.35
2023-05-14T18:55:24.428Z,9.00
2023-05-14T18:57:29.031Z,7.05
2023-05-14T18:59:31.881Z,10.93
2023-05-14T19:01:34.450Z,9.85
2023-05-14T19:03:37.126Z,8.30
2023-05-14T19:05:39.848Z,10.63
2023-05-14T19:07:43.730Z,8.27
2023-05-14T19:09:47.303Z,10.23
2023-05-14T19:11:51.581Z,8.32
2023-05-14T19:13:56.968Z,13.05
2023-05-14T19:15:59.685Z,11.15
2023-05-14T19:18:02.575Z,10.88
2023-05-14T19:20:07.327Z,9.23
2023-05-14T19:22:09.911Z,9.65
2023-05-14T19:24:12.571Z,8.57
2023-05-14T19:26:15.251Z,8.60
2023-05-14T19:28:19.880Z,10.07
2023-05-14T19:30:22.809Z,11.32
2023-05-14T19:32:25.493Z,9.02
2023-05-14T19:34:28.070Z,11.63
2023-05-14T19:36:31.510Z,12.85
2023-05-14T19:38:34.305Z,11.05
2023-05-14T19:40:36.899Z,9.93
2023-05-14T19:42:39.484Z,8.82
2023-05-14T19:44:44.282Z,10.13
2023-05-14T19:46:47.006Z,9.73
2023-05-14T19:48:49.653Z,10.60
2023-05-14T19:50:52.826Z,8.32
2023-05-14T19:52:56.667Z,13.20
2023-05-14T19:54:59.208Z,14.02
2023-05-14T19:57:01.850Z,10.48
2023-05-14T19:59:04.448Z,8.23
2023-05-14T20:01:08.572Z,8.20
2023-05-14T20:03:11.289Z,11.82
2023-05-14T20:05:16.821Z,8.48
2023-05-14T20:07:20.316Z,10.77
2023-05-14T20:09:22.900Z,11.93
2023-05-14T20:11:25.582Z,25.13
2023-05-14T20:13:28.143Z,9.80
2023-05-14T20:15:31.156Z,9.48
2023-05-14T20:17:35.075Z,9.27
2023-05-14T20:19:37.617Z,9.05
2023-05-14T20:21:40.140Z,7.70
2023-05-14T20:23:42.673Z,8.82
2023-05-14T20:25:45.294Z,9.90
2023-05-14T20:27:47.872Z,10.13
2023-05-14T20:29:51.432Z,11.57
2023-05-14T20:31:53.962Z,10.55
2023-05-14T20:33:57.924Z,9.95
2023-05-14T20:36:03.537Z,12.80
2023-05-14T20:38:06.512Z,7.97
2023-05-14T20:40:12.546Z,11.93
2023-05-14T20:42:15.492Z,10.10
2023-05-14T20:44:19.175Z,10.32
2023-05-14T20:46:23.192Z,10.45
2023-05-14T20:48:25.963Z,10.23
2023-05-14T20:50:30.088Z,9.43
2023-05-14T20:52:32.691Z,20.02
2023-05-14T20:54:35.296Z,9.50
2023-05-14T20:56:37.868Z,11.90
2023-05-14T20:58:40.446Z,10.77
2023-05-14T21:00:43.272Z,12.27
2023-05-14T21:02:46.452Z,14.65
2023-05-14T21:04:49.209Z,13.27
2023-05-14T21:06:53.214Z,13.27
2023-05-14T21:08:55.781Z,11.45
2023-05-14T21:10:58.402Z,15.32
2023-05-14T21:13:00.983Z,11.43
2023-05-14T21:15:03.619Z,11.05
2023-05-14T21:17:06.567Z,15.48
2023-05-14T21:19:09.329Z,11.38
2023-05-14T21:21:11.899Z,12.18
2023-05-14T21:23:16.052Z,17.70
2023-05-14T21:25:19.134Z,14.88
2023-05-14T21:27:24.552Z,11.82
2023-05-14T21:29:27.384Z,13.05
2023-05-14T21:31:30.006Z,12.10
2023-05-14T21:33:32.908Z,13.82
2023-05-14T21:35:35.467Z,14.73
2023-05-14T21:37:39.336Z,12.05
2023-05-14T21:39:43.267Z,9.70
2023-05-14T21:41:45.863Z,10.95
2023-05-14T21:43:48.519Z,12.75
2023-05-14T21:45:51.069Z,14.20
2023-05-14T21:47:53.798Z,11.82
2023-05-14T21:49:56.438Z,10.60
2023-05-14T21:51:58.988Z,9.40
2023-05-14T21:54:01.569Z,9.85
2023-05-14T21:56:06.035Z,12.10
2023-05-14T21:58:09.324Z,8.77
2023-05-14T22:00:13.309Z,9.93
2023-05-14T22:02:15.958Z,11.27
2023-05-14T22:04:18.620Z,10.35
2023-05-14T22:06:21.393Z,9.35
2023-05-14T22:08:24.418Z,13.38
2023-05-14T22:10:27.044Z,10.00
2023-05-14T22:12:31.255Z,8.70
2023-05-14T22:14:33.940Z,14.40
2023-05-14T22:16:36.560Z,9.85
2023-05-14T22:18:39.419Z,15.18
2023-05-14T22:20:42.072Z,10.52
2023-05-14T22:22:44.647Z,9.63
2023-05-14T22:24:47.229Z,9.50
2023-05-14T22:26:49.821Z,10.02
2023-05-14T22:28:53.757Z,8.18
2023-05-14T22:30:56.454Z,12.32
2023-05-14T22:32:59.150Z,10.85
2023-05-14T22:35:04.186Z,13.50
2023-05-14T22:37:09.596Z,8.23
2023-05-14T22:39:13.504Z,13.02
2023-05-14T22:41:17.405Z,13.23
2023-05-14T22:43:19.955Z,10.15
2023-05-14T22:45:24.185Z,10.32
2023-05-14T22:47:26.993Z,16.98
2023-05-14T22:49:29.621Z,10.93
2023-05-14T22:51:32.688Z,15.55
2023-05-14T22:53:35.264Z,12.52
2023-05-14T22:55:37.938Z,11.70
2023-05-14T22:57:40.602Z,9.30
2023-05-14T22:59:43.152Z,9.27
2023-05-14T23:01:47.171Z,12.02
2023-05-14T23:03:49.771Z,10.50
2023-05-14T23:05:53.013Z,11.52
2023-05-14T23:07:56.025Z,8.20
2023-05-14T23:09:58.696Z,8.13
2023-05-14T23:12:01.290Z,8.57
2023-05-14T23:14:03.861Z,10.05
2023-05-14T23:16:06.673Z,28.60
2023-05-14T23:18:10.794Z,10.15
2023-05-14T23:20:13.733Z,10.00
2023-05-14T23:22:16.316Z,8.15
2023-05-14T23:24:18.925Z,9.93
2023-05-14T23:26:21.591Z,10.63
2023-05-14T23:28:24.295Z,8.82
2023-05-14T23:30:26.847Z,12.38
2023-05-14T23:32:29.483Z,15.45
2023-05-14T23:34:34.585Z,8.20
2023-05-14T23:36:37.341Z,8.57
2023-05-14T23:38:40.658Z,14.35
2023-05-14T23:40:43.256Z,11.48
2023-05-14T23:42:46.383Z,7.07
2023-05-14T23:44:49.082Z,9.40
2023-05-14T23:46:51.717Z,8.05
2023-05-14T23:48:57.012Z,8.32
2023-05-14T23:51:03.568Z,9.18
2023-05-14T23:53:06.111Z,8.82
2023-05-14T23:55:09.420Z,9.35
2023-05-14T23:57:14.509Z,7.85
2023-05-14T23:59:17.392Z,10.90
